Date,TemperatureHighF,TemperatureAvgF,TemperatureLowF,DewpointHighF,DewpointAvgF,DewpointLowF,HumidityHigh,HumidityAvg,HumidityLow,PressureMaxIn,PressureMinIn,WindSpeedMaxMPH,WindSpeedAvgMPH,GustSpeedMaxMPH,PrecipitationSumIn
2013-10-1,78.6,61.1,49.6,63.1,54.5,47.4,94,81,55,29.97,29.84,12,2,12,0.01
2013-10-2,80.6,65.4,51.3,63.7,56.8,50.2,98,76,51,29.96,29.85,20,3,20,0.01
2013-10-3,79.3,63.0,48.5,59.5,51.0,40.5,95,69,29,30.07,29.96,16,3,16,0.00
2013-10-4,74.3,62.1,55.9,62.5,55.9,52.1,89,81,66,30.02,29.93,11,2,11,0.00
2013-10-7,70.2,63.7,52.1,68.4,59.8,47.7,97,87,71,29.90,29.60,38,5,38,1.09
2013-10-8,66.5,54.9,45.2,49.1,44.6,40.7,94,71,43,30.32,29.89,23,3,24,0.00
2013-10-9,65.6,51.0,41.1,49.3,43.4,39.2,94,78,42,30.41,30.30,12,2,12,0.00
2013-10-10,61.3,50.2,41.6,50.0,45.2,40.0,95,83,60,30.31,30.11,13,2,13,0.00
2013-10-11,74.5,57.6,44.9,59.8,49.9,41.7,92,77,54,30.11,30.01,13,2,13,0.00
2013-10-12,73.1,56.7,42.8,56.0,48.4,39.0,89,75,52,30.29,30.09,20,2,20,0.00
2013-10-13,68.1,55.9,46.7,53.5,49.7,45.1,97,81,56,30.36,30.27,12,1,12,0.00
2013-10-14,70.5,57.5,46.9,55.4,51.2,45.4,97,81,55,30.33,30.17,12,2,12,0.00
2013-10-15,72.9,61.5,54.0,58.8,54.8,48.4,94,80,58,30.22,30.06,15,2,15,0.00
2013-10-16,62.2,55.5,47.8,56.2,51.1,45.2,93,85,76,30.06,29.83,7,1,8,0.00
2013-10-17,78.0,64.1,54.9,61.2,54.6,47.2,95,75,34,29.83,29.55,16,2,16,0.09
2013-10-18,66.3,57.6,42.6,61.7,47.0,37.6,95,70,36,29.91,29.53,19,2,19,0.27
2013-10-19,64.5,51.2,40.7,49.6,42.8,38.3,94,76,43,29.92,29.66,22,4,22,0.03
2013-10-20,61.2,51.3,39.5,48.3,38.4,33.8,90,63,37,30.00,29.65,26,3,26,0.00
2013-10-21,67.3,51.9,38.8,44.2,39.3,35.8,90,66,36,30.07,29.89,20,4,20,0.00
2013-10-22,63.8,52.9,41.1,48.3,42.7,34.4,87,69,47,29.90,29.66,22,3,22,0.00
2013-10-23,54.1,43.1,35.5,38.1,35.1,31.6,91,75,45,29.77,29.57,18,1,18,0.00
2013-10-24,51.5,42.5,30.5,35.4,29.7,25.4,93,63,37,29.89,29.68,30,3,30,0.00
2013-10-25,49.2,42.1,35.5,35.3,31.6,29.5,92,67,49,30.15,29.89,31,4,31,0.00
2013-10-26,54.0,42.9,29.0,33.6,29.7,26.6,95,64,36,30.13,29.79,32,4,32,0.00
2013-10-27,53.5,45.9,34.4,35.1,31.9,29.1,85,59,41,30.05,29.76,28,3,28,0.00
2013-10-28,56.6,41.3,28.9,37.5,32.6,27.1,95,74,46,30.30,30.03,23,2,23,0.00
2013-10-29,49.4,39.5,32.9,32.9,29.9,27.4,89,70,46,30.40,30.30,12,1,12,0.00
2013-10-30,57.7,43.6,33.0,45.2,37.4,28.7,94,80,59,30.31,30.12,10,1,10,0.00
2013-10-31,62.1,46.7,35.6,58.9,45.2,34.3,98,95,87,30.19,29.67,30,2,30,0.72